Current Weather

Chicago Midway Intl

Chicago, Illinois (KMDW)

Report from: Tuesday, February 27, 2024 3:53 AM CST
Current time: Tuesday, February 27, 2024 4:18 AM CST

Nearby weather – Weather history – Daily summaries
Weather forecast

Temperature14.4°C (57.9°F)
Dew point11.7°C (53.1°F)
Winds 13 kts (6.7 m/s, 15 mph) South-Southwest (200°)
Wind gusts 20 kts (10.3 m/s, 23 mph)
Visibility10 mi. (16.1 km)
Clouds Few clouds 1,300 ft. (396 m)
Scattered clouds 25,000 ft. (7,620 m)
Altimeter29.43 in.Hg (997 mB)
Relative humidity84 %
Density altitude713 ft. (217 m)
Sea-level pressure99.6 kPa (996 mB, 29.41 in.Hg)
Remarks Automated weather observing station with precipitation discriminator
Flight conditions Visual Meteorological Conditions
Raw dataKMDW 270953Z 20013G20KT 10SM FEW013 SCT250 14/12 A2943 RMK AO2 SLP959 T01440117
An error has occurred. This application may no longer respond until reloaded. Reload 🗙